<?xml version="1.0" encoding="UTF-8" standalone="no" ?>
<gpx xmlns="http://www.topografix.com/GPX/1/1" xmlns:xsi="http://www.w3.org/2001/XMLSchema-instance" xsi:schemaLocation="http://www.topografix.com/GPX/1/1 http://www.topografix.com/GPX/1/1/gpx.xsd" version="1.1" creator="VisuGPX - https://www.visugpx.com">
  <metadata>
    <name>Pierrelay</name>
    <desc><![CDATA[Jog du 15 aout 2012]]></desc>
  </metadata>
  <trk>
    <name><![CDATA[Pierrelay_1]]></name>
    <trkseg>
      <trkpt lat="47.08453" lon="2.37118">
        <ele>132.2</ele>
        <time>2012-08-15T06:02:47.7100000</time>
      </trkpt>
      <trkpt lat="47.08452" lon="2.37118">
        <ele>132.3</ele>
        <time>2012-08-15T06:03:06.7180000</time>
      </trkpt>
      <trkpt lat="47.08453" lon="2.37117">
        <ele>132.2</ele>
        <time>2012-08-15T06:03:21.7110000</time>
      </trkpt>
      <trkpt lat="47.08458" lon="2.37111">
        <ele>132</ele>
        <time>2012-08-15T06:03:33.7170000</time>
      </trkpt>
      <trkpt lat="47.08463" lon="2.37085">
        <ele>130.4</ele>
        <time>2012-08-15T06:03:46.2120000</time>
      </trkpt>
      <trkpt lat="47.08468" lon="2.37052">
        <ele>130.1</ele>
        <time>2012-08-15T06:03:58.2120000</time>
      </trkpt>
      <trkpt lat="47.08473" lon="2.37019">
        <ele>130</ele>
        <time>2012-08-15T06:04:10.2130000</time>
      </trkpt>
      <trkpt lat="47.08466" lon="2.36989">
        <ele>130.2</ele>
        <time>2012-08-15T06:04:22.2160000</time>
      </trkpt>
      <trkpt lat="47.08464" lon="2.36952">
        <ele>130.5</ele>
        <time>2012-08-15T06:04:34.7170000</time>
      </trkpt>
      <trkpt lat="47.08454" lon="2.36934">
        <ele>131.5</ele>
        <time>2012-08-15T06:04:46.7190000</time>
      </trkpt>
      <trkpt lat="47.08429" lon="2.36929">
        <ele>133.1</ele>
        <time>2012-08-15T06:04:59.2170000</time>
      </trkpt>
      <trkpt lat="47.08404" lon="2.36925">
        <ele>134.5</ele>
        <time>2012-08-15T06:05:11.7170000</time>
      </trkpt>
      <trkpt lat="47.0838" lon="2.36923">
        <ele>135.6</ele>
        <time>2012-08-15T06:05:24.2160000</time>
      </trkpt>
      <trkpt lat="47.08355" lon="2.36919">
        <ele>137.2</ele>
        <time>2012-08-15T06:05:36.7170000</time>
      </trkpt>
      <trkpt lat="47.08332" lon="2.36914">
        <ele>138</ele>
        <time>2012-08-15T06:05:49.2140000</time>
      </trkpt>
      <trkpt lat="47.08307" lon="2.36902">
        <ele>138.9</ele>
        <time>2012-08-15T06:06:01.7160000</time>
      </trkpt>
      <trkpt lat="47.08291" lon="2.36876">
        <ele>139.5</ele>
        <time>2012-08-15T06:06:13.7170000</time>
      </trkpt>
      <trkpt lat="47.08273" lon="2.36853">
        <ele>140.2</ele>
        <time>2012-08-15T06:06:25.7170000</time>
      </trkpt>
      <trkpt lat="47.08255" lon="2.36831">
        <ele>140.8</ele>
        <time>2012-08-15T06:06:38.2120000</time>
      </trkpt>
      <trkpt lat="47.08232" lon="2.36813">
        <ele>141</ele>
        <time>2012-08-15T06:06:50.2140000</time>
      </trkpt>
      <trkpt lat="47.08206" lon="2.36796">
        <ele>141.4</ele>
        <time>2012-08-15T06:07:02.7120000</time>
      </trkpt>
      <trkpt lat="47.08182" lon="2.36785">
        <ele>141.6</ele>
        <time>2012-08-15T06:07:14.7150000</time>
      </trkpt>
      <trkpt lat="47.08159" lon="2.36773">
        <ele>142.2</ele>
        <time>2012-08-15T06:07:26.7150000</time>
      </trkpt>
      <trkpt lat="47.08135" lon="2.3676">
        <ele>142.3</ele>
        <time>2012-08-15T06:07:38.7180000</time>
      </trkpt>
      <trkpt lat="47.08109" lon="2.36748">
        <ele>142.1</ele>
        <time>2012-08-15T06:07:51.2120000</time>
      </trkpt>
      <trkpt lat="47.08084" lon="2.36735">
        <ele>143</ele>
        <time>2012-08-15T06:08:03.2120000</time>
      </trkpt>
      <trkpt lat="47.0806" lon="2.3672">
        <ele>142.9</ele>
        <time>2012-08-15T06:08:15.2130000</time>
      </trkpt>
      <trkpt lat="47.08033" lon="2.36706">
        <ele>144</ele>
        <time>2012-08-15T06:08:27.7170000</time>
      </trkpt>
      <trkpt lat="47.08009" lon="2.36694">
        <ele>144.7</ele>
        <time>2012-08-15T06:08:40.2120000</time>
      </trkpt>
      <trkpt lat="47.07983" lon="2.36682">
        <ele>145.2</ele>
        <time>2012-08-15T06:08:52.2120000</time>
      </trkpt>
      <trkpt lat="47.07958" lon="2.36668">
        <ele>146.1</ele>
        <time>2012-08-15T06:09:04.2120000</time>
      </trkpt>
      <trkpt lat="47.07933" lon="2.36656">
        <ele>146.6</ele>
        <time>2012-08-15T06:09:16.2130000</time>
      </trkpt>
      <trkpt lat="47.07905" lon="2.36643">
        <ele>146.6</ele>
        <time>2012-08-15T06:09:28.7150000</time>
      </trkpt>
      <trkpt lat="47.0788" lon="2.36627">
        <ele>146.9</ele>
        <time>2012-08-15T06:09:40.7160000</time>
      </trkpt>
      <trkpt lat="47.07855" lon="2.36615">
        <ele>147.4</ele>
        <time>2012-08-15T06:09:53.2130000</time>
      </trkpt>
      <trkpt lat="47.07827" lon="2.36601">
        <ele>148.4</ele>
        <time>2012-08-15T06:10:05.7180000</time>
      </trkpt>
      <trkpt lat="47.07803" lon="2.36588">
        <ele>149.3</ele>
        <time>2012-08-15T06:10:18.2140000</time>
      </trkpt>
      <trkpt lat="47.07776" lon="2.36577">
        <ele>149.9</ele>
        <time>2012-08-15T06:10:30.7170000</time>
      </trkpt>
      <trkpt lat="47.07749" lon="2.36565">
        <ele>150.4</ele>
        <time>2012-08-15T06:10:42.7170000</time>
      </trkpt>
      <trkpt lat="47.07724" lon="2.3655">
        <ele>150.7</ele>
        <time>2012-08-15T06:10:55.2130000</time>
      </trkpt>
      <trkpt lat="47.07698" lon="2.36537">
        <ele>150.9</ele>
        <time>2012-08-15T06:11:07.7160000</time>
      </trkpt>
      <trkpt lat="47.07671" lon="2.36529">
        <ele>151.8</ele>
        <time>2012-08-15T06:11:19.7160000</time>
      </trkpt>
      <trkpt lat="47.07644" lon="2.36527">
        <ele>152</ele>
        <time>2012-08-15T06:11:31.7160000</time>
      </trkpt>
      <trkpt lat="47.07618" lon="2.36527">
        <ele>152.7</ele>
        <time>2012-08-15T06:11:43.7160000</time>
      </trkpt>
      <trkpt lat="47.07593" lon="2.36531">
        <ele>153</ele>
        <time>2012-08-15T06:11:55.7160000</time>
      </trkpt>
      <trkpt lat="47.07571" lon="2.36534">
        <ele>153</ele>
        <time>2012-08-15T06:12:07.7160000</time>
      </trkpt>
      <trkpt lat="47.07548" lon="2.3654">
        <ele>153.3</ele>
        <time>2012-08-15T06:12:19.7170000</time>
      </trkpt>
      <trkpt lat="47.07524" lon="2.36551">
        <ele>154</ele>
        <time>2012-08-15T06:12:32.2120000</time>
      </trkpt>
      <trkpt lat="47.07503" lon="2.36564">
        <ele>154</ele>
        <time>2012-08-15T06:12:44.2160000</time>
      </trkpt>
      <trkpt lat="47.07476" lon="2.36584">
        <ele>154.9</ele>
        <time>2012-08-15T06:12:56.2170000</time>
      </trkpt>
      <trkpt lat="47.0745" lon="2.36606">
        <ele>155</ele>
        <time>2012-08-15T06:13:08.7170000</time>
      </trkpt>
      <trkpt lat="47.0743" lon="2.3663">
        <ele>155.5</ele>
        <time>2012-08-15T06:13:21.2130000</time>
      </trkpt>
      <trkpt lat="47.07409" lon="2.36656">
        <ele>156</ele>
        <time>2012-08-15T06:13:33.2130000</time>
      </trkpt>
      <trkpt lat="47.07388" lon="2.36681">
        <ele>156</ele>
        <time>2012-08-15T06:13:45.2130000</time>
      </trkpt>
      <trkpt lat="47.07364" lon="2.36708">
        <ele>156.9</ele>
        <time>2012-08-15T06:13:57.7160000</time>
      </trkpt>
      <trkpt lat="47.07344" lon="2.36732">
        <ele>157</ele>
        <time>2012-08-15T06:14:09.7170000</time>
      </trkpt>
      <trkpt lat="47.07322" lon="2.36759">
        <ele>157</ele>
        <time>2012-08-15T06:14:22.2140000</time>
      </trkpt>
      <trkpt lat="47.07299" lon="2.36785">
        <ele>157</ele>
        <time>2012-08-15T06:14:34.2160000</time>
      </trkpt>
      <trkpt lat="47.07275" lon="2.36812">
        <ele>157</ele>
        <time>2012-08-15T06:14:46.7160000</time>
      </trkpt>
      <trkpt lat="47.07255" lon="2.36837">
        <ele>157</ele>
        <time>2012-08-15T06:14:58.7160000</time>
      </trkpt>
      <trkpt lat="47.07235" lon="2.36861">
        <ele>157</ele>
        <time>2012-08-15T06:15:10.7160000</time>
      </trkpt>
      <trkpt lat="47.07212" lon="2.36887">
        <ele>156.6</ele>
        <time>2012-08-15T06:15:22.7180000</time>
      </trkpt>
      <trkpt lat="47.07191" lon="2.36913">
        <ele>156</ele>
        <time>2012-08-15T06:15:35.2130000</time>
      </trkpt>
      <trkpt lat="47.07167" lon="2.36941">
        <ele>156</ele>
        <time>2012-08-15T06:15:47.7160000</time>
      </trkpt>
      <trkpt lat="47.07149" lon="2.36915">
        <ele>156.6</ele>
        <time>2012-08-15T06:15:59.7170000</time>
      </trkpt>
      <trkpt lat="47.07132" lon="2.36882">
        <ele>157</ele>
        <time>2012-08-15T06:16:11.7170000</time>
      </trkpt>
      <trkpt lat="47.07112" lon="2.36853">
        <ele>157</ele>
        <time>2012-08-15T06:16:24.2110000</time>
      </trkpt>
      <trkpt lat="47.07093" lon="2.36825">
        <ele>157.2</ele>
        <time>2012-08-15T06:16:36.2110000</time>
      </trkpt>
      <trkpt lat="47.07074" lon="2.36796">
        <ele>157.7</ele>
        <time>2012-08-15T06:16:48.2120000</time>
      </trkpt>
      <trkpt lat="47.07056" lon="2.36768">
        <ele>157</ele>
        <time>2012-08-15T06:17:00.2130000</time>
      </trkpt>
      <trkpt lat="47.0704" lon="2.36738">
        <ele>157</ele>
        <time>2012-08-15T06:17:12.2130000</time>
      </trkpt>
      <trkpt lat="47.0702" lon="2.36706">
        <ele>156.9</ele>
        <time>2012-08-15T06:17:24.2170000</time>
      </trkpt>
      <trkpt lat="47.07001" lon="2.36669">
        <ele>157</ele>
        <time>2012-08-15T06:17:36.7160000</time>
      </trkpt>
      <trkpt lat="47.06986" lon="2.36634">
        <ele>156.5</ele>
        <time>2012-08-15T06:17:48.7170000</time>
      </trkpt>
      <trkpt lat="47.06974" lon="2.36594">
        <ele>156.1</ele>
        <time>2012-08-15T06:18:01.2180000</time>
      </trkpt>
      <trkpt lat="47.06972" lon="2.36548">
        <ele>155.7</ele>
        <time>2012-08-15T06:18:13.7160000</time>
      </trkpt>
      <trkpt lat="47.06984" lon="2.36512">
        <ele>155.4</ele>
        <time>2012-08-15T06:18:25.7170000</time>
      </trkpt>
      <trkpt lat="47.06999" lon="2.3648">
        <ele>156</ele>
        <time>2012-08-15T06:18:37.7170000</time>
      </trkpt>
      <trkpt lat="47.07002" lon="2.36445">
        <ele>156.1</ele>
        <time>2012-08-15T06:18:50.2130000</time>
      </trkpt>
      <trkpt lat="47.0699" lon="2.3641">
        <ele>155.3</ele>
        <time>2012-08-15T06:19:02.2130000</time>
      </trkpt>
      <trkpt lat="47.06976" lon="2.36374">
        <ele>154.3</ele>
        <time>2012-08-15T06:19:14.2160000</time>
      </trkpt>
      <trkpt lat="47.06962" lon="2.36337">
        <ele>153.6</ele>
        <time>2012-08-15T06:19:26.2170000</time>
      </trkpt>
      <trkpt lat="47.06949" lon="2.36299">
        <ele>152.2</ele>
        <time>2012-08-15T06:19:38.7160000</time>
      </trkpt>
      <trkpt lat="47.06936" lon="2.36268">
        <ele>151.3</ele>
        <time>2012-08-15T06:19:50.7160000</time>
      </trkpt>
      <trkpt lat="47.06923" lon="2.36238">
        <ele>150</ele>
        <time>2012-08-15T06:20:02.7170000</time>
      </trkpt>
      <trkpt lat="47.0691" lon="2.36206">
        <ele>149.4</ele>
        <time>2012-08-15T06:20:14.7170000</time>
      </trkpt>
      <trkpt lat="47.06895" lon="2.36175">
        <ele>147.6</ele>
        <time>2012-08-15T06:20:27.2130000</time>
      </trkpt>
      <trkpt lat="47.0688" lon="2.36142">
        <ele>147</ele>
        <time>2012-08-15T06:20:39.2170000</time>
      </trkpt>
      <trkpt lat="47.06862" lon="2.36109">
        <ele>145.1</ele>
        <time>2012-08-15T06:20:51.7160000</time>
      </trkpt>
      <trkpt lat="47.06844" lon="2.36081">
        <ele>143.2</ele>
        <time>2012-08-15T06:21:03.7180000</time>
      </trkpt>
      <trkpt lat="47.06828" lon="2.36052">
        <ele>142.6</ele>
        <time>2012-08-15T06:21:16.2140000</time>
      </trkpt>
      <trkpt lat="47.06815" lon="2.36015">
        <ele>141.9</ele>
        <time>2012-08-15T06:21:28.7160000</time>
      </trkpt>
      <trkpt lat="47.06806" lon="2.35978">
        <ele>142</ele>
        <time>2012-08-15T06:21:40.7180000</time>
      </trkpt>
      <trkpt lat="47.06797" lon="2.35944">
        <ele>141.4</ele>
        <time>2012-08-15T06:21:53.2120000</time>
      </trkpt>
      <trkpt lat="47.06788" lon="2.35912">
        <ele>140.7</ele>
        <time>2012-08-15T06:22:05.2140000</time>
      </trkpt>
      <trkpt lat="47.06779" lon="2.35883">
        <ele>140.1</ele>
        <time>2012-08-15T06:22:17.7170000</time>
      </trkpt>
      <trkpt lat="47.06781" lon="2.35844">
        <ele>140.2</ele>
        <time>2012-08-15T06:22:29.7170000</time>
      </trkpt>
      <trkpt lat="47.06777" lon="2.35806">
        <ele>140</ele>
        <time>2012-08-15T06:22:42.2130000</time>
      </trkpt>
      <trkpt lat="47.06782" lon="2.35769">
        <ele>140.1</ele>
        <time>2012-08-15T06:22:54.2130000</time>
      </trkpt>
      <trkpt lat="47.06802" lon="2.35734">
        <ele>139.5</ele>
        <time>2012-08-15T06:23:06.7170000</time>
      </trkpt>
      <trkpt lat="47.06815" lon="2.357">
        <ele>139.2</ele>
        <time>2012-08-15T06:23:19.2130000</time>
      </trkpt>
      <trkpt lat="47.06806" lon="2.35674">
        <ele>139</ele>
        <time>2012-08-15T06:23:31.2130000</time>
      </trkpt>
      <trkpt lat="47.06788" lon="2.35648">
        <ele>140</ele>
        <time>2012-08-15T06:23:43.7140000</time>
      </trkpt>
      <trkpt lat="47.0679" lon="2.3565">
        <ele>139.9</ele>
        <time>2012-08-15T06:23:56.7160000</time>
      </trkpt>
      <trkpt lat="47.06805" lon="2.35675">
        <ele>139</ele>
        <time>2012-08-15T06:24:08.7170000</time>
      </trkpt>
      <trkpt lat="47.06823" lon="2.35687">
        <ele>138.8</ele>
        <time>2012-08-15T06:24:21.2130000</time>
      </trkpt>
      <trkpt lat="47.06839" lon="2.35653">
        <ele>138.3</ele>
        <time>2012-08-15T06:24:33.2130000</time>
      </trkpt>
      <trkpt lat="47.06855" lon="2.3562">
        <ele>138.2</ele>
        <time>2012-08-15T06:24:45.2130000</time>
      </trkpt>
      <trkpt lat="47.0687" lon="2.35586">
        <ele>137.7</ele>
        <time>2012-08-15T06:24:57.7160000</time>
      </trkpt>
      <trkpt lat="47.06885" lon="2.35553">
        <ele>137.8</ele>
        <time>2012-08-15T06:25:09.7180000</time>
      </trkpt>
      <trkpt lat="47.069" lon="2.3552">
        <ele>137</ele>
        <time>2012-08-15T06:25:22.2120000</time>
      </trkpt>
      <trkpt lat="47.06921" lon="2.35499">
        <ele>136.2</ele>
        <time>2012-08-15T06:25:34.2120000</time>
      </trkpt>
      <trkpt lat="47.06947" lon="2.3548">
        <ele>136.3</ele>
        <time>2012-08-15T06:25:46.7170000</time>
      </trkpt>
      <trkpt lat="47.06972" lon="2.35463">
        <ele>135.7</ele>
        <time>2012-08-15T06:25:58.7170000</time>
      </trkpt>
      <trkpt lat="47.06995" lon="2.35449">
        <ele>135.3</ele>
        <time>2012-08-15T06:26:11.2130000</time>
      </trkpt>
      <trkpt lat="47.07022" lon="2.3544">
        <ele>135</ele>
        <time>2012-08-15T06:26:23.7160000</time>
      </trkpt>
      <trkpt lat="47.07046" lon="2.35431">
        <ele>134.3</ele>
        <time>2012-08-15T06:26:35.7160000</time>
      </trkpt>
      <trkpt lat="47.0707" lon="2.35432">
        <ele>134.3</ele>
        <time>2012-08-15T06:26:47.7160000</time>
      </trkpt>
      <trkpt lat="47.07094" lon="2.35437">
        <ele>134.7</ele>
        <time>2012-08-15T06:26:59.7200000</time>
      </trkpt>
      <trkpt lat="47.07117" lon="2.35443">
        <ele>136.3</ele>
        <time>2012-08-15T06:27:12.2120000</time>
      </trkpt>
      <trkpt lat="47.07137" lon="2.35432">
        <ele>137.8</ele>
        <time>2012-08-15T06:27:24.2120000</time>
      </trkpt>
      <trkpt lat="47.07159" lon="2.35417">
        <ele>138.7</ele>
        <time>2012-08-15T06:27:36.2140000</time>
      </trkpt>
      <trkpt lat="47.07182" lon="2.35407">
        <ele>139.2</ele>
        <time>2012-08-15T06:27:48.2160000</time>
      </trkpt>
      <trkpt lat="47.07209" lon="2.35408">
        <ele>140</ele>
        <time>2012-08-15T06:28:00.7170000</time>
      </trkpt>
      <trkpt lat="47.07234" lon="2.35409">
        <ele>140.9</ele>
        <time>2012-08-15T06:28:12.7170000</time>
      </trkpt>
      <trkpt lat="47.07258" lon="2.35411">
        <ele>141.6</ele>
        <time>2012-08-15T06:28:25.2140000</time>
      </trkpt>
      <trkpt lat="47.07285" lon="2.35412">
        <ele>141.7</ele>
        <time>2012-08-15T06:28:37.7170000</time>
      </trkpt>
      <trkpt lat="47.07309" lon="2.35415">
        <ele>141.9</ele>
        <time>2012-08-15T06:28:49.7180000</time>
      </trkpt>
      <trkpt lat="47.07333" lon="2.35416">
        <ele>142</ele>
        <time>2012-08-15T06:29:02.2120000</time>
      </trkpt>
      <trkpt lat="47.07357" lon="2.35419">
        <ele>142.1</ele>
        <time>2012-08-15T06:29:14.2160000</time>
      </trkpt>
      <trkpt lat="47.07383" lon="2.35424">
        <ele>141.5</ele>
        <time>2012-08-15T06:29:26.7160000</time>
      </trkpt>
      <trkpt lat="47.07409" lon="2.35429">
        <ele>140.7</ele>
        <time>2012-08-15T06:29:38.7160000</time>
      </trkpt>
      <trkpt lat="47.07434" lon="2.35432">
        <ele>140.2</ele>
        <time>2012-08-15T06:29:50.7170000</time>
      </trkpt>
      <trkpt lat="47.07458" lon="2.35434">
        <ele>140.2</ele>
        <time>2012-08-15T06:30:03.2120000</time>
      </trkpt>
      <trkpt lat="47.07472" lon="2.35426">
        <ele>140.7</ele>
        <time>2012-08-15T06:30:15.2140000</time>
      </trkpt>
      <trkpt lat="47.07474" lon="2.35422">
        <ele>140.9</ele>
        <time>2012-08-15T06:30:27.7160000</time>
      </trkpt>
      <trkpt lat="47.07475" lon="2.35423">
        <ele>141</ele>
        <time>2012-08-15T06:30:40.7170000</time>
      </trkpt>
      <trkpt lat="47.07479" lon="2.35421">
        <ele>141.4</ele>
        <time>2012-08-15T06:30:52.7170000</time>
      </trkpt>
      <trkpt lat="47.07481" lon="2.35414">
        <ele>141.8</ele>
        <time>2012-08-15T06:31:05.2130000</time>
      </trkpt>
      <trkpt lat="47.07484" lon="2.35393">
        <ele>142.8</ele>
        <time>2012-08-15T06:31:17.2140000</time>
      </trkpt>
      <trkpt lat="47.07491" lon="2.35369">
        <ele>142</ele>
        <time>2012-08-15T06:31:29.7160000</time>
      </trkpt>
      <trkpt lat="47.07506" lon="2.3534">
        <ele>141.4</ele>
        <time>2012-08-15T06:31:41.7160000</time>
      </trkpt>
      <trkpt lat="47.0751" lon="2.35303">
        <ele>141</ele>
        <time>2012-08-15T06:31:53.7170000</time>
      </trkpt>
      <trkpt lat="47.07514" lon="2.35266">
        <ele>140.5</ele>
        <time>2012-08-15T06:32:06.2110000</time>
      </trkpt>
      <trkpt lat="47.07515" lon="2.35226">
        <ele>139.7</ele>
        <time>2012-08-15T06:32:18.2160000</time>
      </trkpt>
      <trkpt lat="47.07518" lon="2.35184">
        <ele>138.4</ele>
        <time>2012-08-15T06:32:30.7170000</time>
      </trkpt>
      <trkpt lat="47.07521" lon="2.35143">
        <ele>137.1</ele>
        <time>2012-08-15T06:32:43.2130000</time>
      </trkpt>
      <trkpt lat="47.07521" lon="2.35103">
        <ele>136.5</ele>
        <time>2012-08-15T06:32:55.2130000</time>
      </trkpt>
      <trkpt lat="47.07521" lon="2.35064">
        <ele>135.1</ele>
        <time>2012-08-15T06:33:07.2130000</time>
      </trkpt>
      <trkpt lat="47.0752" lon="2.35024">
        <ele>133.5</ele>
        <time>2012-08-15T06:33:19.2140000</time>
      </trkpt>
      <trkpt lat="47.07514" lon="2.34982">
        <ele>131</ele>
        <time>2012-08-15T06:33:31.7160000</time>
      </trkpt>
      <trkpt lat="47.07506" lon="2.34945">
        <ele>129.8</ele>
        <time>2012-08-15T06:33:43.7270000</time>
      </trkpt>
      <trkpt lat="47.07498" lon="2.34908">
        <ele>129</ele>
        <time>2012-08-15T06:33:56.2170000</time>
      </trkpt>
      <trkpt lat="47.07492" lon="2.34868">
        <ele>128.2</ele>
        <time>2012-08-15T06:34:08.7250000</time>
      </trkpt>
      <trkpt lat="47.07481" lon="2.34833">
        <ele>128.4</ele>
        <time>2012-08-15T06:34:21.2130000</time>
      </trkpt>
      <trkpt lat="47.07475" lon="2.34798">
        <ele>128.8</ele>
        <time>2012-08-15T06:34:33.2160000</time>
      </trkpt>
      <trkpt lat="47.0746" lon="2.34763">
        <ele>129.5</ele>
        <time>2012-08-15T06:34:45.7170000</time>
      </trkpt>
      <trkpt lat="47.07455" lon="2.34728">
        <ele>130.8</ele>
        <time>2012-08-15T06:34:57.7180000</time>
      </trkpt>
      <trkpt lat="47.0745" lon="2.34693">
        <ele>131.2</ele>
        <time>2012-08-15T06:35:10.2160000</time>
      </trkpt>
      <trkpt lat="47.07446" lon="2.34657">
        <ele>132.8</ele>
        <time>2012-08-15T06:35:22.7160000</time>
      </trkpt>
      <trkpt lat="47.07443" lon="2.34622">
        <ele>134.5</ele>
        <time>2012-08-15T06:35:34.7160000</time>
      </trkpt>
      <trkpt lat="47.0744" lon="2.34586">
        <ele>134.8</ele>
        <time>2012-08-15T06:35:46.7170000</time>
      </trkpt>
      <trkpt lat="47.07437" lon="2.34552">
        <ele>135.9</ele>
        <time>2012-08-15T06:35:58.7170000</time>
      </trkpt>
      <trkpt lat="47.07438" lon="2.3452">
        <ele>137</ele>
        <time>2012-08-15T06:36:11.2130000</time>
      </trkpt>
      <trkpt lat="47.07461" lon="2.34513">
        <ele>138.1</ele>
        <time>2012-08-15T06:36:23.2130000</time>
      </trkpt>
      <trkpt lat="47.07489" lon="2.34512">
        <ele>138.6</ele>
        <time>2012-08-15T06:36:35.7170000</time>
      </trkpt>
      <trkpt lat="47.07514" lon="2.34509">
        <ele>139</ele>
        <time>2012-08-15T06:36:48.2130000</time>
      </trkpt>
      <trkpt lat="47.07537" lon="2.34502">
        <ele>139.9</ele>
        <time>2012-08-15T06:37:00.2130000</time>
      </trkpt>
      <trkpt lat="47.07562" lon="2.34494">
        <ele>139.8</ele>
        <time>2012-08-15T06:37:12.2130000</time>
      </trkpt>
      <trkpt lat="47.07585" lon="2.3449">
        <ele>139.3</ele>
        <time>2012-08-15T06:37:24.2130000</time>
      </trkpt>
      <trkpt lat="47.0761" lon="2.34485">
        <ele>138.6</ele>
        <time>2012-08-15T06:37:36.2130000</time>
      </trkpt>
      <trkpt lat="47.07636" lon="2.34485">
        <ele>138.5</ele>
        <time>2012-08-15T06:37:48.2130000</time>
      </trkpt>
      <trkpt lat="47.07664" lon="2.34483">
        <ele>137.7</ele>
        <time>2012-08-15T06:38:00.7110000</time>
      </trkpt>
      <trkpt lat="47.07691" lon="2.34481">
        <ele>137.1</ele>
        <time>2012-08-15T06:38:12.7150000</time>
      </trkpt>
      <trkpt lat="47.07716" lon="2.34478">
        <ele>136.9</ele>
        <time>2012-08-15T06:38:24.7160000</time>
      </trkpt>
      <trkpt lat="47.07742" lon="2.34474">
        <ele>136.9</ele>
        <time>2012-08-15T06:38:36.7160000</time>
      </trkpt>
      <trkpt lat="47.07769" lon="2.3447">
        <ele>136.4</ele>
        <time>2012-08-15T06:38:48.7170000</time>
      </trkpt>
      <trkpt lat="47.07794" lon="2.34467">
        <ele>136.1</ele>
        <time>2012-08-15T06:39:01.2120000</time>
      </trkpt>
      <trkpt lat="47.07821" lon="2.34464">
        <ele>135.6</ele>
        <time>2012-08-15T06:39:13.2120000</time>
      </trkpt>
      <trkpt lat="47.07846" lon="2.34461">
        <ele>135.2</ele>
        <time>2012-08-15T06:39:25.2130000</time>
      </trkpt>
      <trkpt lat="47.07877" lon="2.34461">
        <ele>134.4</ele>
        <time>2012-08-15T06:39:37.7170000</time>
      </trkpt>
      <trkpt lat="47.07905" lon="2.34464">
        <ele>133.4</ele>
        <time>2012-08-15T06:39:50.2130000</time>
      </trkpt>
      <trkpt lat="47.07932" lon="2.34466">
        <ele>132.9</ele>
        <time>2012-08-15T06:40:02.2140000</time>
      </trkpt>
      <trkpt lat="47.07958" lon="2.34469">
        <ele>132.4</ele>
        <time>2012-08-15T06:40:14.2170000</time>
      </trkpt>
      <trkpt lat="47.07985" lon="2.34471">
        <ele>131.5</ele>
        <time>2012-08-15T06:40:26.2170000</time>
      </trkpt>
      <trkpt lat="47.08014" lon="2.34473">
        <ele>130.5</ele>
        <time>2012-08-15T06:40:38.7170000</time>
      </trkpt>
      <trkpt lat="47.08042" lon="2.34474">
        <ele>129.5</ele>
        <time>2012-08-15T06:40:50.7170000</time>
      </trkpt>
      <trkpt lat="47.08068" lon="2.34476">
        <ele>129.1</ele>
        <time>2012-08-15T06:41:03.2120000</time>
      </trkpt>
      <trkpt lat="47.08095" lon="2.34476">
        <ele>128.6</ele>
        <time>2012-08-15T06:41:15.2150000</time>
      </trkpt>
      <trkpt lat="47.0812" lon="2.34472">
        <ele>127.7</ele>
        <time>2012-08-15T06:41:27.2160000</time>
      </trkpt>
      <trkpt lat="47.08126" lon="2.34442">
        <ele>127</ele>
        <time>2012-08-15T06:41:39.2160000</time>
      </trkpt>
      <trkpt lat="47.08124" lon="2.34403">
        <ele>126</ele>
        <time>2012-08-15T06:41:51.7170000</time>
      </trkpt>
      <trkpt lat="47.08122" lon="2.34364">
        <ele>125.6</ele>
        <time>2012-08-15T06:42:04.2160000</time>
      </trkpt>
      <trkpt lat="47.0812" lon="2.34325">
        <ele>126</ele>
        <time>2012-08-15T06:42:16.7160000</time>
      </trkpt>
      <trkpt lat="47.08119" lon="2.34286">
        <ele>125.8</ele>
        <time>2012-08-15T06:42:28.7170000</time>
      </trkpt>
      <trkpt lat="47.08134" lon="2.34267">
        <ele>125.1</ele>
        <time>2012-08-15T06:42:41.2160000</time>
      </trkpt>
      <trkpt lat="47.08163" lon="2.34268">
        <ele>124.7</ele>
        <time>2012-08-15T06:42:53.2170000</time>
      </trkpt>
      <trkpt lat="47.08192" lon="2.34269">
        <ele>124.1</ele>
        <time>2012-08-15T06:43:05.7170000</time>
      </trkpt>
      <trkpt lat="47.08219" lon="2.34269">
        <ele>124</ele>
        <time>2012-08-15T06:43:17.7170000</time>
      </trkpt>
      <trkpt lat="47.08246" lon="2.3427">
        <ele>124</ele>
        <time>2012-08-15T06:43:29.7170000</time>
      </trkpt>
      <trkpt lat="47.08273" lon="2.34271">
        <ele>123.2</ele>
        <time>2012-08-15T06:43:42.2130000</time>
      </trkpt>
      <trkpt lat="47.08298" lon="2.3427">
        <ele>123</ele>
        <time>2012-08-15T06:43:54.2160000</time>
      </trkpt>
      <trkpt lat="47.08327" lon="2.3427">
        <ele>123</ele>
        <time>2012-08-15T06:44:06.7160000</time>
      </trkpt>
      <trkpt lat="47.08354" lon="2.34271">
        <ele>123</ele>
        <time>2012-08-15T06:44:18.7180000</time>
      </trkpt>
      <trkpt lat="47.0838" lon="2.34273">
        <ele>122.3</ele>
        <time>2012-08-15T06:44:30.7180000</time>
      </trkpt>
      <trkpt lat="47.08408" lon="2.34273">
        <ele>122</ele>
        <time>2012-08-15T06:44:42.7180000</time>
      </trkpt>
      <trkpt lat="47.08433" lon="2.34273">
        <ele>121.8</ele>
        <time>2012-08-15T06:44:54.7180000</time>
      </trkpt>
      <trkpt lat="47.08451" lon="2.34289">
        <ele>121.9</ele>
        <time>2012-08-15T06:45:07.2130000</time>
      </trkpt>
      <trkpt lat="47.0845" lon="2.34328">
        <ele>121.8</ele>
        <time>2012-08-15T06:45:19.2130000</time>
      </trkpt>
      <trkpt lat="47.0845" lon="2.34374">
        <ele>121.8</ele>
        <time>2012-08-15T06:45:31.7180000</time>
      </trkpt>
      <trkpt lat="47.08447" lon="2.34406">
        <ele>121.9</ele>
        <time>2012-08-15T06:45:44.2170000</time>
      </trkpt>
      <trkpt lat="47.08445" lon="2.34445">
        <ele>122</ele>
        <time>2012-08-15T06:45:56.7160000</time>
      </trkpt>
      <trkpt lat="47.08454" lon="2.34479">
        <ele>121.9</ele>
        <time>2012-08-15T06:46:08.7160000</time>
      </trkpt>
      <trkpt lat="47.08462" lon="2.34512">
        <ele>121.6</ele>
        <time>2012-08-15T06:46:20.7160000</time>
      </trkpt>
      <trkpt lat="47.08461" lon="2.34553">
        <ele>122</ele>
        <time>2012-08-15T06:46:32.7180000</time>
      </trkpt>
      <trkpt lat="47.08457" lon="2.34592">
        <ele>122</ele>
        <time>2012-08-15T06:46:45.2170000</time>
      </trkpt>
      <trkpt lat="47.08456" lon="2.34636">
        <ele>122</ele>
        <time>2012-08-15T06:46:57.7240000</time>
      </trkpt>
      <trkpt lat="47.08452" lon="2.34676">
        <ele>121.9</ele>
        <time>2012-08-15T06:47:10.2130000</time>
      </trkpt>
      <trkpt lat="47.08455" lon="2.34715">
        <ele>121.4</ele>
        <time>2012-08-15T06:47:22.2130000</time>
      </trkpt>
      <trkpt lat="47.08457" lon="2.34756">
        <ele>121.5</ele>
        <time>2012-08-15T06:47:34.2130000</time>
      </trkpt>
      <trkpt lat="47.08457" lon="2.34795">
        <ele>121.6</ele>
        <time>2012-08-15T06:47:46.2130000</time>
      </trkpt>
      <trkpt lat="47.08454" lon="2.34832">
        <ele>121.7</ele>
        <time>2012-08-15T06:47:58.2130000</time>
      </trkpt>
      <trkpt lat="47.08457" lon="2.34871">
        <ele>121.4</ele>
        <time>2012-08-15T06:48:10.7170000</time>
      </trkpt>
      <trkpt lat="47.08464" lon="2.34908">
        <ele>120.6</ele>
        <time>2012-08-15T06:48:23.2140000</time>
      </trkpt>
      <trkpt lat="47.0847" lon="2.34949">
        <ele>121.2</ele>
        <time>2012-08-15T06:48:35.7170000</time>
      </trkpt>
      <trkpt lat="47.08479" lon="2.34988">
        <ele>122.1</ele>
        <time>2012-08-15T06:48:47.7170000</time>
      </trkpt>
      <trkpt lat="47.08477" lon="2.35029">
        <ele>122.8</ele>
        <time>2012-08-15T06:48:59.7170000</time>
      </trkpt>
      <trkpt lat="47.08475" lon="2.35058">
        <ele>122</ele>
        <time>2012-08-15T06:49:11.7170000</time>
      </trkpt>
      <trkpt lat="47.08479" lon="2.35094">
        <ele>122</ele>
        <time>2012-08-15T06:49:23.7170000</time>
      </trkpt>
      <trkpt lat="47.08481" lon="2.35133">
        <ele>122.2</ele>
        <time>2012-08-15T06:49:36.2140000</time>
      </trkpt>
      <trkpt lat="47.0848" lon="2.35172">
        <ele>122.8</ele>
        <time>2012-08-15T06:49:48.2140000</time>
      </trkpt>
      <trkpt lat="47.08481" lon="2.3521">
        <ele>123</ele>
        <time>2012-08-15T06:50:00.2180000</time>
      </trkpt>
      <trkpt lat="47.08484" lon="2.35251">
        <ele>123.4</ele>
        <time>2012-08-15T06:50:12.7160000</time>
      </trkpt>
      <trkpt lat="47.08486" lon="2.35289">
        <ele>124.2</ele>
        <time>2012-08-15T06:50:24.7160000</time>
      </trkpt>
      <trkpt lat="47.08491" lon="2.35328">
        <ele>123.5</ele>
        <time>2012-08-15T06:50:36.7170000</time>
      </trkpt>
      <trkpt lat="47.08496" lon="2.35366">
        <ele>123</ele>
        <time>2012-08-15T06:50:48.7180000</time>
      </trkpt>
      <trkpt lat="47.08501" lon="2.35405">
        <ele>122</ele>
        <time>2012-08-15T06:51:01.2120000</time>
      </trkpt>
      <trkpt lat="47.08506" lon="2.35442">
        <ele>122.2</ele>
        <time>2012-08-15T06:51:13.2130000</time>
      </trkpt>
      <trkpt lat="47.08504" lon="2.35486">
        <ele>122.6</ele>
        <time>2012-08-15T06:51:25.7160000</time>
      </trkpt>
      <trkpt lat="47.08507" lon="2.35525">
        <ele>123.7</ele>
        <time>2012-08-15T06:51:37.7160000</time>
      </trkpt>
      <trkpt lat="47.08509" lon="2.35562">
        <ele>123.1</ele>
        <time>2012-08-15T06:51:49.7160000</time>
      </trkpt>
      <trkpt lat="47.08516" lon="2.35596">
        <ele>123.1</ele>
        <time>2012-08-15T06:52:01.7170000</time>
      </trkpt>
      <trkpt lat="47.08529" lon="2.35627">
        <ele>122.6</ele>
        <time>2012-08-15T06:52:14.2140000</time>
      </trkpt>
      <trkpt lat="47.08544" lon="2.35656">
        <ele>123.3</ele>
        <time>2012-08-15T06:52:26.2170000</time>
      </trkpt>
      <trkpt lat="47.08561" lon="2.35689">
        <ele>122.2</ele>
        <time>2012-08-15T06:52:38.7170000</time>
      </trkpt>
      <trkpt lat="47.08576" lon="2.35719">
        <ele>122.9</ele>
        <time>2012-08-15T06:52:50.7170000</time>
      </trkpt>
      <trkpt lat="47.08592" lon="2.35752">
        <ele>122.7</ele>
        <time>2012-08-15T06:53:03.2120000</time>
      </trkpt>
      <trkpt lat="47.08612" lon="2.35782">
        <ele>122.1</ele>
        <time>2012-08-15T06:53:15.2120000</time>
      </trkpt>
      <trkpt lat="47.08619" lon="2.35818">
        <ele>122.4</ele>
        <time>2012-08-15T06:53:27.2120000</time>
      </trkpt>
      <trkpt lat="47.0863" lon="2.3585">
        <ele>122.6</ele>
        <time>2012-08-15T06:53:39.2120000</time>
      </trkpt>
      <trkpt lat="47.0863" lon="2.3588">
        <ele>122.8</ele>
        <time>2012-08-15T06:53:51.2120000</time>
      </trkpt>
      <trkpt lat="47.08633" lon="2.35913">
        <ele>122.1</ele>
        <time>2012-08-15T06:54:03.2160000</time>
      </trkpt>
      <trkpt lat="47.08635" lon="2.35953">
        <ele>122</ele>
        <time>2012-08-15T06:54:15.7170000</time>
      </trkpt>
      <trkpt lat="47.08639" lon="2.35991">
        <ele>122</ele>
        <time>2012-08-15T06:54:28.2120000</time>
      </trkpt>
      <trkpt lat="47.0864" lon="2.36029">
        <ele>122</ele>
        <time>2012-08-15T06:54:40.2130000</time>
      </trkpt>
      <trkpt lat="47.08642" lon="2.36072">
        <ele>122.1</ele>
        <time>2012-08-15T06:54:52.7170000</time>
      </trkpt>
      <trkpt lat="47.08642" lon="2.36116">
        <ele>122</ele>
        <time>2012-08-15T06:55:04.7170000</time>
      </trkpt>
      <trkpt lat="47.08641" lon="2.36152">
        <ele>122</ele>
        <time>2012-08-15T06:55:16.7170000</time>
      </trkpt>
      <trkpt lat="47.08646" lon="2.36188">
        <ele>122</ele>
        <time>2012-08-15T06:55:29.2180000</time>
      </trkpt>
      <trkpt lat="47.08649" lon="2.36229">
        <ele>122</ele>
        <time>2012-08-15T06:55:41.7170000</time>
      </trkpt>
      <trkpt lat="47.0865" lon="2.36268">
        <ele>122</ele>
        <time>2012-08-15T06:55:54.2140000</time>
      </trkpt>
      <trkpt lat="47.08654" lon="2.36316">
        <ele>122</ele>
        <time>2012-08-15T06:56:06.7160000</time>
      </trkpt>
      <trkpt lat="47.08664" lon="2.36365">
        <ele>122</ele>
        <time>2012-08-15T06:56:18.7160000</time>
      </trkpt>
      <trkpt lat="47.08664" lon="2.3641">
        <ele>122</ele>
        <time>2012-08-15T06:56:30.7170000</time>
      </trkpt>
      <trkpt lat="47.08654" lon="2.36441">
        <ele>122</ele>
        <time>2012-08-15T06:56:42.7170000</time>
      </trkpt>
      <trkpt lat="47.08654" lon="2.3648">
        <ele>122</ele>
        <time>2012-08-15T06:56:54.7170000</time>
      </trkpt>
      <trkpt lat="47.08657" lon="2.36521">
        <ele>122</ele>
        <time>2012-08-15T06:57:07.2130000</time>
      </trkpt>
      <trkpt lat="47.0866" lon="2.3656">
        <ele>123</ele>
        <time>2012-08-15T06:57:19.2130000</time>
      </trkpt>
      <trkpt lat="47.08662" lon="2.36604">
        <ele>123</ele>
        <time>2012-08-15T06:57:31.7180000</time>
      </trkpt>
      <trkpt lat="47.08664" lon="2.36646">
        <ele>123</ele>
        <time>2012-08-15T06:57:44.2130000</time>
      </trkpt>
      <trkpt lat="47.08666" lon="2.36684">
        <ele>123</ele>
        <time>2012-08-15T06:57:56.2130000</time>
      </trkpt>
      <trkpt lat="47.08665" lon="2.36726">
        <ele>123</ele>
        <time>2012-08-15T06:58:08.2130000</time>
      </trkpt>
      <trkpt lat="47.08668" lon="2.36771">
        <ele>123</ele>
        <time>2012-08-15T06:58:20.2160000</time>
      </trkpt>
      <trkpt lat="47.08671" lon="2.36821">
        <ele>123</ele>
        <time>2012-08-15T06:58:32.7160000</time>
      </trkpt>
      <trkpt lat="47.08675" lon="2.3687">
        <ele>123.2</ele>
        <time>2012-08-15T06:58:44.7180000</time>
      </trkpt>
      <trkpt lat="47.08675" lon="2.36921">
        <ele>123.7</ele>
        <time>2012-08-15T06:58:57.2130000</time>
      </trkpt>
      <trkpt lat="47.08653" lon="2.36964">
        <ele>123.5</ele>
        <time>2012-08-15T06:59:09.2130000</time>
      </trkpt>
      <trkpt lat="47.08643" lon="2.36972">
        <ele>123.1</ele>
        <time>2012-08-15T06:59:21.2170000</time>
      </trkpt>
      <trkpt lat="47.08643" lon="2.36971">
        <ele>123.1</ele>
        <time>2012-08-15T06:59:32.2120000</time>
      </trkpt>
    </trkseg>
  </trk>
</gpx>